Terminal Aerodrome Forecast
Issued by NWS

Home | Current Version | Previous Version | Text Only | Print | Product List | Glossary On
Versions: 1 2 3 4 5 6 7 8 9 10 11 12 13 14 15 16 17 18 19 20 21 22 23 24 25 26 27 28 29 30 31 32 33 34 35
000
FTUS42 KRAH 170540
TAFRWI
TAF
KRWI 170540Z 1706/1806 18004KT P6SM OVC120
     FM171200 01003KT P6SM -RA OVC025
     FM171500 02006KT 1 1/2SM -RASN BR OVC007
     FM171800 02010KT 1/2SM FG OVC004
     FM172200 01012KT 1 1/2SM -SN BR OVC007
     FM180200 01008KT P6SM OVC025
     FM180400 35004KT P6SM OVC050=

USA.gov is the U.S. government's official web portal to all federal, state and local government web resources and services.